This is the latest recevied weather packets stored in our database for station/object KI4MRC. If no packets are shown the sender has not sent any weather packets the latest 10 day(s).
| Time | Temp. | Humidity | Pressure | Rain* | Wind** | Luminosity | Snow |
|---|---|---|---|---|---|---|---|
| 1777957156 | 23.33° C | 89% | 1014.9 hPa | 0.51 mm | - | 0 W/m² | - |
| 1777956853 | 23.89° C | 86% | 1014.8 hPa | 0 mm | - | 0 W/m² | - |
| 1777956550 | 23.89° C | 83% | 1014.6 hPa | 0 mm | - | 0 W/m² | - |
| 1777956247 | 23.89° C | 81% | 1014.6 hPa | 0 mm | - | 0 W/m² | - |
| 1777955943 | 23.89° C | 81% | 1014.6 hPa | 0 mm | - | 0 W/m² | - |
| 1777955640 | 23.89° C | 81% | 1014.7 hPa | 0 mm | - | 0 W/m² | - |
| 1777955336 | 23.89° C | 81% | 1014.8 hPa | 0 mm | - | 0 W/m² | - |
| 1777955033 | 23.89° C | 80% | 1014.6 hPa | 0 mm | - | 0 W/m² | - |
| 1777954730 | 23.89° C | 80% | 1014.9 hPa | 0 mm | - | 0 W/m² | - |
| 1777954427 | 23.89° C | 80% | 1014.7 hPa | 0 mm | - | 0 W/m² | - |
| 1777954124 | 23.89° C | 81% | 1014.9 hPa | 0 mm | - | 0 W/m² | - |
| 1777953822 | 23.89° C | 81% | 1015 hPa | 0 mm | - | 0 W/m² | - |
| 1777941090 | 23.89° C | 79% | 1014 hPa | 0 mm | - | 0 W/m² | - |
| 1777940484 | 23.89° C | 78% | 1014 hPa | 0 mm | - | 0 W/m² | - |
| 1777940181 | 23.89° C | 78% | 1014.1 hPa | 0 mm | - | 0 W/m² | - |
| 1777932300 | 25.56° C | 72% | 1013.6 hPa | 0 mm | - | 99 W/m² | - |
| 1777929872 | 25.56° C | 73% | 1013.5 hPa | 0 mm | - | 125 W/m² | - |
| 1777928964 | 25.56° C | 70% | 1013.8 hPa | 0 mm | - | 123 W/m² | - |
| 1777928661 | 26.11° C | 69% | 1013.7 hPa | 0 mm | - | 113 W/m² | - |
| 1777926848 | 26.11° C | 72% | 1013.7 hPa | 0 mm | - | 270 W/m² | - |
| 1777925937 | 25.56° C | 72% | 1014 hPa | 0 mm | - | 204 W/m² | - |
| 1777925028 | 26.11° C | 71% | 1014.1 hPa | 0 mm | - | 184 W/m² | - |
| 1777924725 | 26.67° C | 71% | 1014.1 hPa | 0 mm | - | 354 W/m² | - |
| 1777923509 | 25° C | 74% | 1014.4 hPa | 0 mm | - | 128 W/m² | - |
| 1777923207 | 25° C | 74% | 1014.5 hPa | 0 mm | - | 128 W/m² | - |
* Rain latest hour (hover to see other rain measurements)
** Current wind speed in m/s (hover to see current wind gust speed)